Time;durP1;ratioP1;P1;durP2;ratioP2;P2;SDS_P1;SDS_P2;PMS_P1;PMS_P2;Temp;Humidity;BMP_temperature;BMP_pressure;BME280_temperature;BME280_humidity;BME280_pressure;Samples;Min_cycle;Max_cycle;Signal;HPM_P1;HPM_P2
2022/04/07 00:02:18;;;;;;;;;4.33;1.67;;;;;11.81;71.49;99757.31;5076980;28;45404;-69
2022/04/07 00:04:44;;;;;;;;;1.00;0.50;;;;;11.86;71.76;99759.47;5068617;28;45388;-70
2022/04/07 00:07:09;;;;;;;;;1.00;1.00;;;;;11.87;71.26;99761.19;5067217;28;45318;-69
2022/04/07 00:09:34;;;;;;;;;2.67;1.00;;;;;11.75;71.43;99730.81;5065085;28;45397;-69
2022/04/07 00:12:00;;;;;;;;;1.33;1.33;;;;;11.74;71.37;99739.13;5075294;28;45447;-69
2022/04/07 00:14:25;;;;;;;;;1.33;1.00;;;;;11.73;71.62;99738.28;5066761;27;45545;-69
2022/04/07 00:16:50;;;;;;;;;1.33;1.33;;;;;11.77;70.93;99719.72;5081758;27;45442;-70
2022/04/07 00:19:16;;;;;;;;;1.00;1.00;;;;;11.78;71.21;99725.00;5070413;28;45880;-70
2022/04/07 00:21:42;;;;;;;;;2.00;2.00;;;;;11.82;71.05;99728.22;5072442;28;45245;-69
2022/04/07 00:24:07;;;;;;;;;1.00;0.00;;;;;11.85;71.15;99730.56;5068785;27;46783;-69
2022/04/07 00:26:35;;;;;;;;;1.00;1.00;;;;;11.81;70.78;99724.66;5070530;28;45485;-70
2022/04/07 00:29:00;;;;;;;;;1.67;0.33;;;;;11.86;70.57;99718.66;5095683;27;45604;-69
2022/04/07 00:31:26;;;;;;;;;1.67;1.67;;;;;11.81;70.12;99707.47;5067259;28;45556;-70
2022/04/07 00:33:52;;;;;;;;;1.00;1.00;;;;;11.91;70.57;99718.94;5078633;28;45592;-70
2022/04/07 00:36:17;;;;;;;;;1.00;1.00;;;;;11.80;69.79;99701.19;5076883;28;45514;-69
2022/04/07 00:38:43;;;;;;;;;1.00;1.00;;;;;11.86;70.32;99710.50;5077116;28;45280;-69
2022/04/07 00:41:08;;;;;;;;;1.00;1.00;;;;;11.90;69.83;99707.25;5078449;28;45578;-70
2022/04/07 00:43:36;;;;;;;;;2.00;2.00;;;;;11.91;70.20;99699.91;5088454;27;46305;-70
2022/04/07 00:46:03;;;;;;;;;3.67;1.00;;;;;11.87;69.97;99690.41;5067575;28;45795;-70
2022/04/07 00:48:29;;;;;;;;;4.67;1.00;;;;;11.87;70.10;99695.84;5072358;28;45397;-69
2022/04/07 00:50:55;;;;;;;;;1.00;1.00;;;;;11.91;70.00;99676.25;5067896;28;45327;-69
2022/04/07 00:53:20;;;;;;;;;1.00;1.00;;;;;11.91;69.61;99670.81;5071792;28;47475;-69
2022/04/07 00:55:48;;;;;;;;;0.00;0.00;;;;;11.90;70.04;99673.72;5066596;28;45342;-69
2022/04/07 00:58:14;;;;;;;;;0.00;0.00;;;;;11.93;69.78;99665.19;5071845;28;45425;-69
2022/04/07 01:00:40;;;;;;;;;2.00;2.00;;;;;11.92;69.65;99644.44;5066656;28;45540;-69
2022/04/07 01:03:05;;;;;;;;;1.00;1.00;;;;;11.94;69.28;99650.53;5072929;28;46311;-69
2022/04/07 01:05:31;;;;;;;;;5.00;2.00;;;;;11.85;69.60;99635.31;5072604;28;45935;-69
2022/04/07 01:07:56;;;;;;;;;3.00;2.00;;;;;11.82;69.16;99630.25;5073633;28;45484;-69
2022/04/07 01:10:23;;;;;;;;;1.33;1.33;;;;;11.88;69.49;99616.75;5064886;28;45299;-69
2022/04/07 01:12:48;;;;;;;;;2.33;1.00;;;;;11.87;69.46;99608.75;5074582;27;45509;-69
2022/04/07 01:15:14;;;;;;;;;3.00;1.00;;;;;11.90;69.50;99611.13;5066853;28;45625;-69
2022/04/07 01:17:39;;;;;;;;;0.00;0.00;;;;;11.89;69.36;99612.16;5088956;27;45453;-68
2022/04/07 01:20:06;;;;;;;;;1.00;1.00;;;;;11.89;69.70;99598.56;5064297;28;45287;-71
2022/04/07 01:22:39;;;;;;;;;2.33;0.67;;;;;11.92;69.38;99609.91;5069566;28;46433;-70
2022/04/07 01:25:05;;;;;;;;;3.00;2.00;;;;;11.94;69.45;99604.28;5062502;28;45456;-68
2022/04/07 01:27:30;;;;;;;;;1.67;1.00;;;;;11.87;71.56;99597.88;5077355;27;45535;-69
2022/04/07 01:29:57;;;;;;;;;2.33;1.67;;;;;11.75;73.54;99613.81;5087199;27;45347;-69
2022/04/07 01:32:37;;;;;;;;;4.00;1.00;;;;;11.67;73.62;99625.59;5066136;28;47138;-69
2022/04/07 01:35:04;;;;;;;;;1.33;1.33;;;;;11.62;74.42;99614.38;5071840;28;45450;-69
2022/04/07 01:37:30;;;;;;;;;2.00;2.00;;;;;11.61;74.05;99612.72;5068111;28;45492;-69
2022/04/07 01:39:56;;;;;;;;;1.33;1.33;;;;;11.52;74.61;99594.75;5084085;27;45381;-70
2022/04/07 01:42:21;;;;;;;;;1.00;1.00;;;;;11.52;74.25;99604.78;5076829;28;47142;-69
2022/04/07 01:44:52;;;;;;;;;2.00;1.00;;;;;11.46;73.77;99590.06;5062955;28;45337;-70
2022/04/07 01:47:20;;;;;;;;;3.33;2.67;;;;;11.56;73.58;99596.06;5074444;28;45418;-69
2022/04/07 01:49:51;;;;;;;;;2.00;2.00;;;;;11.59;73.65;99575.84;5071398;28;45578;-69
2022/04/07 01:52:17;;;;;;;;;2.00;2.00;;;;;11.62;73.21;99573.56;5074565;28;47555;-69
2022/04/07 01:54:43;;;;;;;;;0.00;0.00;;;;;11.69;73.02;99573.69;5082488;28;45792;-69
2022/04/07 01:57:10;;;;;;;;;3.33;1.00;;;;;11.72;73.21;99562.44;5070769;28;45380;-69
2022/04/07 01:59:37;;;;;;;;;1.67;1.00;;;;;11.65;72.45;99559.63;5062074;28;45307;-69
2022/04/07 02:02:02;;;;;;;;;2.00;2.00;;;;;11.70;72.41;99553.59;5071255;28;45990;-69
2022/04/07 02:04:28;;;;;;;;;1.00;1.00;;;;;11.72;73.46;99565.16;5075571;27;46290;-69
2022/04/07 02:06:54;;;;;;;;;3.00;3.00;;;;;11.61;74.15;99561.03;5072421;27;45459;-69
2022/04/07 02:09:19;;;;;;;;;0.67;0.67;;;;;11.66;74.15;99557.75;5066422;28;45341;-69
2022/04/07 02:11:45;;;;;;;;;1.00;1.00;;;;;11.53;74.98;99566.53;5065146;28;46971;-69
2022/04/07 02:14:10;;;;;;;;;2.67;1.00;;;;;11.57;75.36;99565.13;5062981;28;45313;-70
2022/04/07 02:16:35;;;;;;;;;0.00;0.00;;;;;11.59;75.27;99538.59;5068974;28;45524;-69
2022/04/07 02:19:01;;;;;;;;;1.00;1.00;;;;;11.45;75.13;99544.84;5071024;28;45340;-71
2022/04/07 02:21:26;;;;;;;;;0.00;0.00;;;;;11.54;75.65;99540.19;5067364;28;45372;-69
2022/04/07 02:23:52;;;;;;;;;2.00;2.00;;;;;11.57;75.04;99537.91;5069605;28;45428;-69
2022/04/07 02:26:17;;;;;;;;;2.00;1.00;;;;;11.58;75.32;99544.22;5079039;28;45652;-69
2022/04/07 02:28:43;;;;;;;;;1.67;1.67;;;;;11.47;74.93;99521.00;5085652;27;45578;-69
2022/04/07 02:31:09;;;;;;;;;2.33;1.33;;;;;11.64;75.01;99532.59;5076757;27;47206;-69
2022/04/07 02:33:35;;;;;;;;;2.00;2.00;;;;;11.69;75.16;99524.69;5074109;28;45385;-69
2022/04/07 02:36:06;;;;;;;;;2.00;1.00;;;;;11.61;76.09;99506.63;5077667;27;45317;-69
2022/04/07 02:38:31;;;;;;;;;1.67;1.67;;;;;11.58;76.95;99501.53;5072165;28;45536;-69
2022/04/07 02:40:57;;;;;;;;;0.00;0.00;;;;;11.51;77.59;99503.31;5065042;28;45334;-69
2022/04/07 02:43:22;;;;;;;;;2.00;2.00;;;;;11.45;78.04;99495.88;5073561;27;45465;-70
2022/04/07 02:45:48;;;;;;;;;1.00;1.00;;;;;11.45;78.28;99485.00;5079455;27;45413;-70
2022/04/07 02:48:13;;;;;;;;;3.00;2.00;;;;;11.45;79.00;99478.72;5070661;28;45518;-69
2022/04/07 02:50:39;;;;;;;;;0.00;0.00;;;;;11.36;78.54;99469.78;5062786;28;47227;-69
2022/04/07 02:53:04;;;;;;;;;2.00;2.00;;;;;11.40;79.41;99465.66;5081571;28;45389;-69
2022/04/07 02:55:29;;;;;;;;;3.00;1.00;;;;;11.36;79.28;99466.22;5064157;28;45317;-69
2022/04/07 02:57:59;;;;;;;;;1.33;1.33;;;;;11.28;78.97;99459.00;5065976;27;45422;-69
2022/04/07 03:00:24;;;;;;;;;0.00;0.00;;;;;11.26;78.94;99452.88;5061107;28;48154;-69
2022/04/07 03:02:50;;;;;;;;;3.00;1.00;;;;;11.35;79.36;99435.47;5064235;27;45350;-70
2022/04/07 03:05:15;;;;;;;;;3.00;1.00;;;;;11.33;78.86;99432.94;5069225;28;45366;-69
2022/04/07 03:07:41;;;;;;;;;2.33;1.00;;;;;11.42;79.06;99447.28;5077337;28;45337;-70
2022/04/07 03:10:07;;;;;;;;;2.00;2.00;;;;;11.35;78.78;99435.47;5064516;28;47959;-69
2022/04/07 03:12:32;;;;;;;;;1.33;1.00;;;;;11.45;79.00;99429.75;5077143;28;45376;-70
2022/04/07 03:14:57;;;;;;;;;0.00;0.00;;;;;11.46;78.69;99424.16;5071233;28;45599;-71
2022/04/07 03:17:23;;;;;;;;;2.67;2.00;;;;;11.42;78.93;99422.81;5079490;28;45406;-70
2022/04/07 03:19:48;;;;;;;;;1.00;1.00;;;;;11.53;78.50;99422.38;5084398;28;46971;-70
2022/04/07 03:22:15;;;;;;;;;3.00;3.00;;;;;11.51;78.43;99399.09;5079300;28;45314;-69
2022/04/07 03:24:41;;;;;;;;;4.33;3.00;;;;;11.36;78.45;99392.81;5064358;28;45243;-68
2022/04/07 03:27:07;;;;;;;;;1.00;1.00;;;;;11.38;78.67;99378.00;5080819;28;45332;-68
2022/04/07 03:29:32;;;;;;;;;2.00;2.00;;;;;11.50;78.73;99384.66;5091339;27;45348;-69
2022/04/07 03:31:59;;;;;;;;;2.00;1.00;;;;;11.52;78.27;99370.88;5067757;28;45405;-69
2022/04/07 03:34:24;;;;;;;;;3.67;2.00;;;;;11.59;78.33;99366.38;5083503;28;45300;-70
2022/04/07 03:36:49;;;;;;;;;0.33;0.33;;;;;11.54;78.44;99350.59;5076317;27;45519;-69
2022/04/07 03:39:15;;;;;;;;;3.00;1.67;;;;;11.59;78.46;99350.88;5067515;28;47244;-68
2022/04/07 03:41:40;;;;;;;;;1.00;1.00;;;;;11.60;78.94;99336.25;5076206;28;45899;-68
2022/04/07 03:44:09;;;;;;;;;0.00;0.00;;;;;11.55;78.68;99327.81;5066640;28;45481;-68
2022/04/07 03:46:35;;;;;;;;;2.00;1.00;;;;;11.51;79.33;99326.50;5071366;28;45573;-69
2022/04/07 03:49:00;;;;;;;;;2.00;0.00;;;;;11.52;79.55;99306.44;5079413;28;46187;-69
2022/04/07 03:51:26;;;;;;;;;3.67;3.33;;;;;11.54;79.74;99298.91;5077608;28;45415;-68
2022/04/07 03:53:51;;;;;;;;;2.33;1.33;;;;;11.55;80.66;99297.88;5070834;28;45418;-68
2022/04/07 03:56:16;;;;;;;;;3.67;2.00;;;;;11.56;80.50;99280.53;5068696;28;45259;-69
2022/04/07 03:58:42;;;;;;;;;3.00;2.00;;;;;11.49;80.34;99290.47;5064611;28;47216;-70
2022/04/07 04:01:07;;;;;;;;;1.00;1.00;;;;;11.52;80.34;99262.91;5070416;28;45430;-68
2022/04/07 04:03:33;;;;;;;;;1.00;1.00;;;;;11.57;80.08;99265.91;5076248;28;45358;-70
2022/04/07 04:05:58;;;;;;;;;0.00;0.00;;;;;11.58;80.37;99273.03;5078076;27;45500;-69
2022/04/07 04:08:23;;;;;;;;;2.00;2.00;;;;;11.59;80.46;99258.41;5071301;28;46223;-69
2022/04/07 04:10:49;;;;;;;;;6.33;2.67;;;;;11.65;80.30;99251.34;5081798;28;45442;-70
2022/04/07 04:13:14;;;;;;;;;5.00;2.00;;;;;11.68;79.80;99238.22;5072549;28;45472;-69
2022/04/07 04:15:39;;;;;;;;;0.00;0.00;;;;;11.72;79.20;99241.38;5075330;28;45457;-70
2022/04/07 04:18:05;;;;;;;;;3.00;2.67;;;;;11.76;80.05;99236.44;5089258;27;47085;-70
2022/04/07 04:20:30;;;;;;;;;1.67;1.67;;;;;11.81;80.01;99234.81;5081262;28;46239;-71
2022/04/07 04:22:56;;;;;;;;;1.00;1.00;;;;;11.81;80.12;99225.81;5074578;27;45408;-69
2022/04/07 04:25:22;;;;;;;;;2.33;2.33;;;;;11.75;80.05;99229.31;5082434;28;45477;-70
2022/04/07 04:27:48;;;;;;;;;8.00;6.33;;;;;11.82;80.24;99224.78;5082542;27;46212;-69
2022/04/07 04:30:13;;;;;;;;;1.00;1.00;;;;;11.80;79.99;99232.28;5091796;27;45377;-68
2022/04/07 04:32:39;;;;;;;;;2.00;1.67;;;;;11.82;79.63;99222.06;5069868;27;45291;-69
2022/04/07 04:35:05;;;;;;;;;1.00;1.00;;;;;11.87;79.84;99223.16;5083864;28;45366;-69
2022/04/07 04:37:31;;;;;;;;;5.67;2.67;;;;;11.94;79.27;99221.34;5067016;28;47380;-69
2022/04/07 04:39:56;;;;;;;;;4.00;1.00;;;;;11.97;79.78;99215.53;5079858;28;45637;-69
2022/04/07 04:42:22;;;;;;;;;1.00;1.00;;;;;11.93;79.32;99213.38;5075461;28;45353;-69
2022/04/07 04:44:47;;;;;;;;;5.00;3.00;;;;;11.85;85.45;99213.50;5064100;28;45410;-69
2022/04/07 04:47:13;;;;;;;;;3.33;2.00;;;;;11.83;87.01;99205.56;5068259;28;45616;-71
2022/04/07 04:49:42;;;;;;;;;2.33;2.00;;;;;11.84;82.39;99209.09;5084037;28;45472;-69
2022/04/07 04:52:11;;;;;;;;;3.00;3.00;;;;;11.82;81.71;99200.28;5076574;28;45945;-70
2022/04/07 04:54:37;;;;;;;;;4.33;2.00;;;;;11.88;81.25;99192.19;5070595;27;45276;-69
2022/04/07 04:57:02;;;;;;;;;3.00;3.00;;;;;11.97;80.21;99207.38;5072318;28;45343;-67
2022/04/07 04:59:28;;;;;;;;;6.00;3.00;;;;;12.00;80.25;99196.06;5064910;27;45263;-70
2022/04/07 05:01:53;;;;;;;;;5.33;3.33;;;;;11.96;80.44;99183.91;5063157;28;45648;-69
2022/04/07 05:04:18;;;;;;;;;2.67;2.67;;;;;12.00;79.91;99190.63;5076768;28;45469;-70
2022/04/07 05:06:44;;;;;;;;;5.00;3.00;;;;;12.05;79.69;99187.34;5065744;27;46294;-71
2022/04/07 05:09:09;;;;;;;;;3.33;2.00;;;;;12.07;78.88;99164.31;5072278;28;45690;-69
2022/04/07 05:11:34;;;;;;;;;2.33;1.00;;;;;12.11;78.60;99185.69;5069671;28;45711;-69
2022/04/07 05:14:00;;;;;;;;;3.67;1.33;;;;;12.04;78.45;99180.19;5067709;28;45479;-70
2022/04/07 05:16:26;;;;;;;;;2.67;2.67;;;;;12.12;78.48;99171.91;5074794;28;45660;-70
2022/04/07 05:18:52;;;;;;;;;1.00;1.00;;;;;12.15;77.79;99173.38;5068994;28;45691;-69
2022/04/07 05:21:18;;;;;;;;;2.33;2.33;;;;;12.14;78.10;99172.53;5071061;28;45468;-70
2022/04/07 05:23:44;;;;;;;;;2.00;1.00;;;;;12.17;77.64;99172.13;5061769;28;45420;-70
2022/04/07 05:26:09;;;;;;;;;2.00;2.00;;;;;12.16;77.45;99167.72;5062239;28;45334;-69
2022/04/07 05:28:35;;;;;;;;;5.67;3.00;;;;;12.21;77.69;99159.81;5083765;27;45335;-68
2022/04/07 05:31:00;;;;;;;;;3.67;2.00;;;;;12.26;77.96;99160.06;5068101;27;45313;-69
2022/04/07 05:33:25;;;;;;;;;2.00;2.00;;;;;12.25;77.49;99138.47;5081680;27;45424;-68
2022/04/07 05:35:51;;;;;;;;;8.00;7.67;;;;;12.30;76.78;99141.44;5063806;28;46309;-67
2022/04/07 05:38:16;;;;;;;;;11.00;8.00;;;;;12.32;77.64;99132.03;5076551;28;45232;-69
2022/04/07 05:40:43;;;;;;;;;11.33;8.33;;;;;12.28;77.63;99128.00;5080298;28;45298;-68
2022/04/07 05:43:08;;;;;;;;;9.00;9.00;;;;;12.24;77.42;99124.03;5067808;28;45596;-70
2022/04/07 05:45:34;;;;;;;;;8.33;8.00;;;;;12.32;77.06;99120.31;5075275;28;45891;-68
2022/04/07 05:48:00;;;;;;;;;12.67;11.33;;;;;12.32;77.15;99117.59;5067794;28;45315;-67
2022/04/07 05:50:25;;;;;;;;;11.33;10.00;;;;;12.43;76.54;99112.41;5080378;27;46278;-68
2022/04/07 05:52:51;;;;;;;;;4.00;4.00;;;;;12.35;76.64;99093.50;5072037;28;45463;-68
2022/04/07 05:55:16;;;;;;;;;4.00;4.00;;;;;12.44;76.54;99111.38;5081502;28;46086;-67
2022/04/07 05:57:41;;;;;;;;;4.33;4.33;;;;;12.45;75.56;99110.34;5063960;28;45288;-68
2022/04/07 06:00:12;;;;;;;;;4.00;2.00;;;;;12.46;75.51;99111.19;5061740;28;45291;-68
2022/04/07 06:02:42;;;;;;;;;2.00;2.00;;;;;12.41;74.93;99081.00;5074965;28;45578;-69
2022/04/07 06:05:10;;;;;;;;;1.00;1.00;;;;;12.60;75.12;99095.75;5065057;28;46383;-68
2022/04/07 06:07:36;;;;;;;;;1.00;1.00;;;;;12.61;74.31;99100.16;5066949;28;45393;-68
2022/04/07 06:10:04;;;;;;;;;2.00;0.67;;;;;12.64;74.56;99084.22;5079272;28;45452;-68
2022/04/07 06:12:29;;;;;;;;;2.00;2.00;;;;;12.57;74.23;99096.13;5073798;28;45554;-67
2022/04/07 06:14:54;;;;;;;;;1.00;1.00;;;;;12.64;74.46;99110.66;5079404;27;46472;-68
2022/04/07 06:17:20;;;;;;;;;0.67;0.67;;;;;12.65;73.74;99090.53;5073239;28;45465;-69
2022/04/07 06:19:45;;;;;;;;;0.00;0.00;;;;;12.68;73.80;99084.69;5081748;28;45256;-68
2022/04/07 06:22:12;;;;;;;;;2.67;2.00;;;;;12.69;74.25;99103.56;5074130;27;45359;-68
2022/04/07 06:24:38;;;;;;;;;0.33;0.33;;;;;12.72;74.03;99094.13;5061494;28;46189;-69
2022/04/07 06:27:04;;;;;;;;;1.67;1.67;;;;;12.76;74.56;99098.13;5062097;28;45641;-68
2022/04/07 06:29:29;;;;;;;;;1.33;1.00;;;;;12.72;74.08;99091.41;5084389;27;45270;-68
2022/04/07 06:31:55;;;;;;;;;1.00;1.00;;;;;12.73;74.25;99083.03;5069218;28;45346;-69
2022/04/07 06:34:23;;;;;;;;;2.00;1.67;;;;;12.72;74.20;99072.31;5064011;28;45333;-70
2022/04/07 06:36:48;;;;;;;;;1.33;1.00;;;;;12.74;74.45;99079.25;5064215;28;45407;-68
2022/04/07 06:39:14;;;;;;;;;2.67;1.00;;;;;12.74;75.06;99078.41;5080982;28;45412;-68
2022/04/07 06:41:39;;;;;;;;;2.33;2.00;;;;;12.64;75.29;99048.81;5083429;27;45402;-67
2022/04/07 06:44:05;;;;;;;;;7.67;7.00;;;;;12.64;75.42;99051.53;5084769;27;46562;-68
2022/04/07 06:46:32;;;;;;;;;3.00;1.00;;;;;12.56;75.56;99062.63;5070910;28;45333;-67
2022/04/07 06:48:58;;;;;;;;;3.00;2.00;;;;;12.55;75.83;99073.72;5073163;28;45344;-67
2022/04/07 06:51:23;;;;;;;;;2.67;2.67;;;;;12.52;75.91;99052.31;5068003;28;45600;-67
2022/04/07 06:53:49;;;;;;;;;3.00;0.00;;;;;12.66;75.56;99060.34;5077811;28;46321;-67
2022/04/07 06:56:14;;;;;;;;;4.00;1.67;;;;;12.70;75.71;99066.25;5078393;28;45401;-67
2022/04/07 06:58:39;;;;;;;;;3.67;2.00;;;;;12.77;75.59;99056.22;5065451;28;45168;-68
2022/04/07 07:01:05;;;;;;;;;5.67;3.00;;;;;12.75;74.87;99053.69;5068470;28;45346;-68
2022/04/07 07:03:31;;;;;;;;;2.00;0.67;;;;;12.81;75.20;99062.94;5073842;28;45309;-70
2022/04/07 07:05:58;;;;;;;;;1.67;1.67;;;;;12.69;75.48;99064.56;5075637;28;45860;-69
2022/04/07 07:08:24;;;;;;;;;1.00;1.00;;;;;12.63;75.57;99051.75;5074346;28;45417;-69
2022/04/07 07:10:51;;;;;;;;;2.00;2.00;;;;;12.85;75.10;99042.41;5068152;28;45415;-68
2022/04/07 07:13:22;;;;;;;;;6.00;1.00;;;;;12.82;75.33;99045.53;5072230;28;47710;-68
2022/04/07 07:15:48;;;;;;;;;1.00;1.00;;;;;12.76;75.94;99054.53;5082600;28;45381;-68
2022/04/07 07:18:13;;;;;;;;;0.33;0.33;;;;;12.81;75.78;99046.59;5081462;28;45400;-68
2022/04/07 07:20:39;;;;;;;;;1.00;1.00;;;;;12.86;75.37;99049.53;5083794;28;45404;-68
2022/04/07 07:23:06;;;;;;;;;2.67;2.00;;;;;12.92;74.97;99037.81;5090091;27;46868;-68
2022/04/07 07:25:31;;;;;;;;;2.00;0.33;;;;;12.97;74.66;99038.03;5074324;28;45270;-67
2022/04/07 07:27:58;;;;;;;;;1.00;1.00;;;;;13.01;74.82;99039.31;5075025;27;45380;-68
2022/04/07 07:30:24;;;;;;;;;1.00;1.00;;;;;13.04;74.38;99038.06;5065521;28;45405;-69
2022/04/07 07:32:51;;;;;;;;;1.00;1.00;;;;;13.15;74.82;99035.59;5065682;28;46617;-67
2022/04/07 07:35:17;;;;;;;;;0.00;0.00;;;;;13.14;74.49;99036.66;5071983;28;45921;-68
2022/04/07 07:37:49;;;;;;;;;0.67;0.00;;;;;13.12;74.57;99036.00;5072435;28;45299;-68
2022/04/07 07:40:15;;;;;;;;;1.00;1.00;;;;;13.06;74.65;99020.47;5084938;27;45161;-69
2022/04/07 07:42:42;;;;;;;;;2.33;1.00;;;;;13.11;75.18;99014.38;5074677;28;45389;-67
2022/04/07 07:45:07;;;;;;;;;1.00;1.00;;;;;13.16;75.17;99018.19;5064867;28;45328;-68
2022/04/07 07:47:33;;;;;;;;;0.67;0.67;;;;;13.23;75.04;99024.50;5074232;28;45501;-68
2022/04/07 07:49:59;;;;;;;;;0.00;0.00;;;;;13.32;74.66;99027.03;5063351;28;45269;-67
2022/04/07 07:52:25;;;;;;;;;0.00;0.00;;;;;13.34;73.56;99030.38;5074647;28;48167;-67
2022/04/07 07:54:50;;;;;;;;;2.00;2.00;;;;;13.37;74.18;99002.72;5064806;28;45325;-68
2022/04/07 07:57:15;;;;;;;;;0.00;0.00;;;;;13.44;74.58;99017.19;5075598;28;45439;-68
2022/04/07 07:59:41;;;;;;;;;2.33;1.33;;;;;13.48;74.48;99013.81;5065577;27;45252;-68
2022/04/07 08:02:06;;;;;;;;;3.00;0.67;;;;;13.41;74.43;99013.00;5072849;28;48255;-69
2022/04/07 08:04:32;;;;;;;;;0.00;0.00;;;;;13.64;74.42;99018.88;5070020;27;45435;-68
2022/04/07 08:06:58;;;;;;;;;0.00;0.00;;;;;13.62;73.96;99006.47;5074232;28;45801;-68
2022/04/07 08:09:23;;;;;;;;;0.00;0.00;;;;;13.75;74.08;99022.84;5081367;28;45426;-68
2022/04/07 08:11:49;;;;;;;;;1.00;1.00;;;;;13.75;73.73;99006.47;5077743;28;45412;-68
2022/04/07 08:14:14;;;;;;;;;1.00;1.00;;;;;13.89;73.19;99008.13;5080087;28;45279;-68
2022/04/07 08:16:40;;;;;;;;;1.00;0.00;;;;;14.02;72.79;99013.59;5070400;28;45388;-68
2022/04/07 08:19:06;;;;;;;;;0.00;0.00;;;;;14.04;72.60;99005.16;5083143;28;45580;-69
2022/04/07 08:21:32;;;;;;;;;2.00;2.00;;;;;14.15;73.17;99011.88;5077602;28;47844;-67
2022/04/07 08:23:58;;;;;;;;;0.00;0.00;;;;;14.18;72.52;98995.06;5064122;28;45433;-68
2022/04/07 08:26:23;;;;;;;;;1.00;0.00;;;;;14.18;72.69;98997.78;5074379;27;45176;-67
2022/04/07 08:28:48;;;;;;;;;0.00;0.00;;;;;14.09;72.15;98996.34;5096509;27;45415;-68
2022/04/07 08:31:14;;;;;;;;;1.00;1.00;;;;;14.30;72.80;98993.34;5067637;27;45353;-68
2022/04/07 08:33:39;;;;;;;;;0.00;0.00;;;;;14.50;71.59;98999.63;5090361;27;45405;-68
2022/04/07 08:36:05;;;;;;;;;0.00;0.00;;;;;14.61;70.22;98993.47;5077484;28;45669;-68
2022/04/07 08:38:30;;;;;;;;;0.00;0.00;;;;;14.78;70.04;98991.06;5074136;28;45367;-68
2022/04/07 08:40:56;;;;;;;;;0.00;0.00;;;;;14.77;69.57;98973.00;5065621;28;45466;-68
2022/04/07 08:43:23;;;;;;;;;0.00;0.00;;;;;14.84;68.78;99011.22;5075421;27;45366;-68
2022/04/07 08:45:49;;;;;;;;;0.00;0.00;;;;;15.09;68.93;98993.00;5082087;27;46019;-68
2022/04/07 08:48:15;;;;;;;;;2.00;0.00;;;;;15.25;67.70;98991.66;5073515;28;45421;-68
2022/04/07 08:50:44;;;;;;;;;0.67;0.67;;;;;15.42;67.61;98988.13;5063731;28;46504;-68
2022/04/07 08:53:12;;;;;;;;;0.00;0.00;;;;;15.42;67.65;98981.81;5071694;28;45393;-68
2022/04/07 08:55:37;;;;;;;;;1.00;0.00;;;;;15.43;67.07;98989.81;5064178;28;45437;-68
2022/04/07 08:58:04;;;;;;;;;0.00;0.00;;;;;15.48;67.48;98981.78;5079704;28;45388;-67
2022/04/07 09:00:29;;;;;;;;;0.00;0.00;;;;;15.37;67.66;98982.50;5064249;28;45321;-68
2022/04/07 09:02:55;;;;;;;;;2.00;0.00;;;;;15.54;66.43;98980.94;5074537;28;45250;-68
2022/04/07 09:05:23;;;;;;;;;0.00;0.00;;;;;15.70;66.60;98987.75;5067859;28;45248;-68
2022/04/07 09:07:53;;;;;;;;;3.00;0.00;;;;;15.72;65.70;98976.53;5070033;28;45578;-68
2022/04/07 09:10:21;;;;;;;;;1.00;0.00;;;;;15.80;65.46;98992.69;5064043;28;45759;-68
2022/04/07 09:12:47;;;;;;;;;0.67;0.00;;;;;15.89;65.53;98978.50;5069004;27;45238;-68
2022/04/07 09:15:13;;;;;;;;;0.00;0.00;;;;;15.92;65.66;98988.16;5064061;28;45368;-70
2022/04/07 09:17:53;;;;;;;;;0.00;0.00;;;;;15.85;65.85;98988.22;5078127;28;45465;-67
2022/04/07 09:20:20;;;;;;;;;0.67;0.00;;;;;15.63;66.48;98970.53;5083055;28;46676;-67
2022/04/07 09:22:55;;;;;;;;;0.00;0.00;;;;;15.84;66.35;98978.34;5074694;27;45300;-68
2022/04/07 09:25:20;;;;;;;;;1.00;0.00;;;;;15.93;64.49;98962.44;5073879;28;45226;-68
2022/04/07 09:27:48;;;;;;;;;0.00;0.00;;;;;16.19;64.93;98977.78;5072129;27;45249;-68
2022/04/07 09:30:14;;;;;;;;;0.00;0.00;;;;;16.21;64.03;98959.22;5079958;27;45566;-68
2022/04/07 09:32:44;;;;;;;;;1.00;0.00;;;;;16.09;64.47;98978.28;5071086;28;45437;-68
2022/04/07 09:35:11;;;;;;;;;1.33;1.33;;;;;15.98;63.95;98975.47;5063310;28;45357;-69
2022/04/07 09:37:39;;;;;;;;;0.00;0.00;;;;;15.99;64.50;98972.50;5069701;28;45369;-69
2022/04/07 09:40:06;;;;;;;;;0.00;0.00;;;;;16.08;64.55;98976.59;5082032;28;47298;-68
2022/04/07 09:42:33;;;;;;;;;1.00;0.00;;;;;16.22;64.38;98975.41;5075628;27;46180;-68
2022/04/07 09:45:01;;;;;;;;;3.00;2.00;;;;;16.34;64.07;99003.75;5063357;28;45240;-68
2022/04/07 09:47:42;;;;;;;;;1.00;1.00;;;;;16.40;63.41;99003.88;5075079;28;45568;-68
2022/04/07 09:50:20;;;;;;;;;2.33;1.00;;;;;16.26;63.40;99004.03;5063335;28;45573;-67
2022/04/07 09:53:05;;;;;;;;;1.67;1.67;;;;;16.04;64.04;98991.84;5072072;28;45263;-67
2022/04/07 09:55:36;;;;;;;;;1.00;1.00;;;;;15.91;66.09;99009.25;5081314;27;45254;-67
2022/04/07 09:58:03;;;;;;;;;0.00;0.00;;;;;15.76;67.64;99016.97;5072061;28;45544;-68
2022/04/07 10:00:29;;;;;;;;;0.00;0.00;;;;;15.75;69.19;99019.91;5061754;28;47662;-67
2022/04/07 10:02:56;;;;;;;;;1.00;1.00;;;;;15.75;69.28;99042.66;5073854;28;45342;-68
2022/04/07 10:05:23;;;;;;;;;0.00;0.00;;;;;15.51;70.33;99036.06;5067090;28;45492;-68
2022/04/07 10:07:49;;;;;;;;;0.00;0.00;;;;;15.10;73.05;99049.41;5085309;27;45437;-68
2022/04/07 10:10:15;;;;;;;;;1.00;1.00;;;;;14.77;75.71;99083.19;5087782;28;47184;-67
2022/04/07 10:12:41;;;;;;;;;12.33;11.67;;;;;14.61;78.09;99100.06;5081977;28;45484;-66
2022/04/07 10:15:07;;;;;;;;;1.67;1.00;;;;;14.34;83.01;99112.06;5085241;27;45547;-68
2022/04/07 10:17:35;;;;;;;;;1.33;1.00;;;;;14.21;81.02;99106.63;5078753;27;45425;-67
2022/04/07 10:20:06;;;;;;;;;1.33;1.33;;;;;14.15;80.04;99110.19;5083643;27;46281;-66
2022/04/07 10:23:03;;;;;;;;;3.33;1.00;;;;;14.30;79.52;99125.31;5067488;28;45399;-67
2022/04/07 10:25:30;;;;;;;;;1.67;1.00;;;;;14.55;79.61;99111.00;5079882;28;45338;-68
2022/04/07 10:27:59;;;;;;;;;1.67;1.67;;;;;14.69;78.84;99118.97;5068421;27;45543;-68
2022/04/07 10:30:29;;;;;;;;;2.67;2.67;;;;;14.91;77.86;99135.09;5081528;27;45639;-68
2022/04/07 10:32:56;;;;;;;;;3.67;3.00;;;;;15.10;77.55;99156.06;5073369;28;45298;-66
2022/04/07 10:35:30;;;;;;;;;1.00;1.00;;;;;15.19;75.38;99157.53;5062503;28;45217;-67
2022/04/07 10:38:00;;;;;;;;;2.00;2.00;;;;;15.18;74.20;99150.38;5071548;28;45422;-68
2022/04/07 10:40:36;;;;;;;;;2.00;0.33;;;;;15.14;71.96;99157.31;5062416;28;45370;-68
2022/04/07 10:43:09;;;;;;;;;1.00;1.00;;;;;15.31;72.85;99166.72;5072166;28;45403;-68
2022/04/07 10:45:36;;;;;;;;;0.00;0.00;;;;;15.04;70.78;99187.88;5080921;27;45363;-68
2022/04/07 10:48:33;;;;;;;;;1.00;1.00;;;;;15.22;72.43;99178.13;5073162;27;45327;-68
2022/04/07 10:51:03;;;;;;;;;0.00;0.00;;;;;14.91;71.28;99181.56;5064724;28;45385;-68
2022/04/07 10:53:31;;;;;;;;;1.00;1.00;;;;;15.11;70.45;99194.16;5072775;28;45326;-67
2022/04/07 10:56:09;;;;;;;;;1.67;1.67;;;;;15.22;71.23;99189.91;5064615;28;45271;-67
2022/04/07 10:58:51;;;;;;;;;2.67;1.00;;;;;15.31;71.36;99191.34;5073812;27;45554;-69
2022/04/07 11:01:26;;;;;;;;;1.33;1.33;;;;;15.46;69.76;99180.97;5076237;28;45933;-68
2022/04/07 11:04:22;;;;;;;;;1.00;1.00;;;;;15.51;68.12;99177.56;5074610;28;45338;-69
2022/04/07 11:07:13;;;;;;;;;1.00;1.00;;;;;15.23;65.79;99194.31;5068735;28;45503;-68
2022/04/07 11:09:57;;;;;;;;;0.00;0.00;;;;;15.12;65.10;99189.53;5064380;28;45525;-67
2022/04/07 11:12:29;;;;;;;;;1.00;0.00;;;;;14.74;68.11;99197.63;5071033;28;47906;-68
2022/04/07 11:15:16;;;;;;;;;0.00;0.00;;;;;14.64;67.77;99208.97;5080233;28;45392;-68
2022/04/07 11:17:41;;;;;;;;;0.67;0.67;;;;;14.65;68.13;99216.13;5068429;28;45519;-68
2022/04/07 11:20:20;;;;;;;;;2.00;2.00;;;;;14.76;67.79;99201.78;5062398;28;45365;-68
2022/04/07 11:23:01;;;;;;;;;1.00;0.67;;;;;14.83;65.55;99209.16;5070719;28;46550;-69
2022/04/07 11:25:38;;;;;;;;;1.33;1.33;;;;;14.63;64.97;99218.22;5081245;28;46076;-69
2022/04/07 11:28:13;;;;;;;;;1.00;0.00;;;;;14.61;63.86;99231.25;5074924;27;45183;-68
2022/04/07 11:30:49;;;;;;;;;0.00;0.00;;;;;14.78;62.00;99251.66;5081733;28;45362;-68
2022/04/07 11:33:20;;;;;;;;;0.00;0.00;;;;;14.67;62.77;99235.91;5078241;27;46325;-68
2022/04/07 11:36:00;;;;;;;;;2.67;2.00;;;;;15.07;63.15;99238.56;5072142;28;45340;-69